Time;durP1;ratioP1;P1;durP2;ratioP2;P2;SDS_P1;SDS_P2;PMS_P1;PMS_P2;Temp;Humidity;BMP_temperature;BMP_pressure;BME280_temperature;BME280_humidity;BME280_pressure;Samples;Min_cycle;Max_cycle;Signal;HPM_P1;HPM_P2
2023/09/19 00:00:01;;;;;;;6.70;3.55;;;;;;;;;;4993912;28;20491;-76
2023/09/19 00:02:26;;;;;;;4.35;3.28;;;;;;;;;;4993739;28;20038;-76
2023/09/19 00:04:52;;;;;;;4.53;3.25;;;;;;;;;;4993664;28;20022;-76
2023/09/19 00:07:17;;;;;;;5.72;3.58;;;;;;;;;;4993140;28;20026;-76
2023/09/19 00:09:44;;;;;;;6.65;3.95;;;;;;;;;;4993759;28;20025;-76
2023/09/19 00:12:09;;;;;;;5.97;3.50;;;;;;;;;;4993946;28;20481;-76
2023/09/19 00:14:35;;;;;;;4.85;3.30;;;;;;;;;;4993633;28;20073;-76
2023/09/19 00:17:05;;;;;;;4.78;3.47;;;;;;;;;;4993637;28;20037;-76
2023/09/19 00:19:32;;;;;;;5.97;3.42;;;;;;;;;;4994019;28;20106;-77
2023/09/19 00:21:57;;;;;;;10.60;3.67;;;;;;;;;;4993517;28;20022;-76
2023/09/19 00:24:23;;;;;;;6.03;3.60;;;;;;;;;;4976163;28;20504;-76
2023/09/19 00:26:48;;;;;;;6.00;3.58;;;;;;;;;;4993767;28;20023;-76
2023/09/19 00:29:16;;;;;;;11.73;3.65;;;;;;;;;;4976812;28;20034;-77
2023/09/19 00:31:43;;;;;;;6.05;3.35;;;;;;;;;;4993470;28;20026;-76
2023/09/19 00:34:10;;;;;;;6.30;3.58;;;;;;;;;;4993915;28;20056;-76
2023/09/19 00:36:38;;;;;;;7.53;3.80;;;;;;;;;;4993421;28;20037;-76
2023/09/19 00:39:05;;;;;;;4.82;3.55;;;;;;;;;;4975922;28;20018;-76
2023/09/19 00:41:30;;;;;;;6.05;3.70;;;;;;;;;;4993368;28;20105;-76
2023/09/19 00:43:55;;;;;;;7.05;3.70;;;;;;;;;;4993329;28;20134;-76
2023/09/19 00:46:21;;;;;;;5.40;3.77;;;;;;;;;;4993313;28;20504;-76
2023/09/19 00:48:46;;;;;;;11.75;4.32;;;;;;;;;;4993262;28;20600;-76
2023/09/19 00:51:13;;;;;;;8.07;3.95;;;;;;;;;;4975907;28;20030;-76
2023/09/19 00:53:42;;;;;;;5.82;3.75;;;;;;;;;;4993288;28;20030;-75
2023/09/19 00:56:07;;;;;;;9.13;3.78;;;;;;;;;;4993277;28;20026;-76
2023/09/19 00:58:35;;;;;;;4.95;3.50;;;;;;;;;;4976143;28;20440;-76
2023/09/19 01:01:01;;;;;;;5.88;3.88;;;;;;;;;;4993182;28;20022;-76
2023/09/19 01:03:27;;;;;;;7.45;4.13;;;;;;;;;;4993185;28;20026;-76
2023/09/19 01:05:53;;;;;;;11.15;3.92;;;;;;;;;;4993268;28;20482;-76
2023/09/19 01:08:18;;;;;;;5.72;3.70;;;;;;;;;;4993299;28;20076;-76
2023/09/19 01:10:55;;;;;;;7.47;4.28;;;;;;;;;;4975688;28;20018;-76
2023/09/19 01:13:34;;;;;;;6.32;4.03;;;;;;;;;;4993469;28;20018;-76
2023/09/19 01:16:26;;;;;;;5.80;3.80;;;;;;;;;;4975704;28;20026;-76
2023/09/19 01:19:29;;;;;;;6.82;3.95;;;;;;;;;;4996961;28;20053;-76
2023/09/19 01:22:12;;;;;;;7.15;4.05;;;;;;;;;;4936772;29;20042;-76
2023/09/19 01:25:13;;;;;;;5.60;4.07;;;;;;;;;;4992632;28;20042;-76
2023/09/19 01:28:20;;;;;;;6.95;4.18;;;;;;;;;;4996583;28;20060;-76
2023/09/19 01:30:46;;;;;;;5.75;3.83;;;;;;;;;;4996815;28;20076;-76
2023/09/19 01:33:12;;;;;;;5.85;3.92;;;;;;;;;;4979096;28;20397;-76
2023/09/19 01:35:38;;;;;;;5.82;3.97;;;;;;;;;;4997083;28;20026;-76
2023/09/19 01:38:05;;;;;;;7.35;3.75;;;;;;;;;;4996477;28;20374;-76
2023/09/19 01:40:30;;;;;;;7.90;3.97;;;;;;;;;;4996446;28;20030;-76
2023/09/19 01:43:08;;;;;;;5.60;3.47;;;;;;;;;;4996121;28;20033;-75
2023/09/19 01:45:46;;;;;;;5.88;3.95;;;;;;;;;;4996222;28;20444;-75
2023/09/19 01:48:38;;;;;;;5.22;3.67;;;;;;;;;;4996709;28;20030;-76
2023/09/19 01:51:07;;;;;;;7.45;4.10;;;;;;;;;;4995966;28;20512;-76
2023/09/19 01:53:44;;;;;;;4.80;3.72;;;;;;;;;;4995967;28;20038;-76
2023/09/19 01:56:19;;;;;;;8.13;3.97;;;;;;;;;;4996056;28;20034;-76
2023/09/19 01:58:50;;;;;;;5.50;3.50;;;;;;;;;;4978435;28;20026;-75
2023/09/19 02:01:19;;;;;;;5.00;3.40;;;;;;;;;;4995809;28;20038;-76
2023/09/19 02:03:47;;;;;;;7.38;3.70;;;;;;;;;;4978249;28;20023;-76
2023/09/19 02:06:17;;;;;;;6.28;3.20;;;;;;;;;;4995713;28;20588;-76
2023/09/19 02:08:43;;;;;;;6.05;3.50;;;;;;;;;;4995793;28;20397;-76
2023/09/19 02:11:10;;;;;;;3.92;3.33;;;;;;;;;;4995683;28;20129;-76
2023/09/19 02:13:36;;;;;;;6.47;3.42;;;;;;;;;;4978271;28;20505;-76
2023/09/19 02:16:02;;;;;;;9.38;3.47;;;;;;;;;;4995629;28;20120;-76
2023/09/19 02:18:30;;;;;;;5.25;3.47;;;;;;;;;;4995588;28;20476;-76
2023/09/19 02:20:56;;;;;;;4.53;3.00;;;;;;;;;;4995420;28;20497;-76
2023/09/19 02:23:21;;;;;;;5.95;3.33;;;;;;;;;;4995398;28;20037;-77
2023/09/19 02:26:13;;;;;;;5.53;3.80;;;;;;;;;;4995433;28;20022;-76
2023/09/19 02:28:39;;;;;;;5.03;3.40;;;;;;;;;;4975276;28;20034;-76
2023/09/19 02:31:07;;;;;;;4.38;3.08;;;;;;;;;;4995217;28;20033;-76
2023/09/19 02:33:32;;;;;;;5.32;3.28;;;;;;;;;;4995185;28;20078;-76
2023/09/19 02:35:58;;;;;;;4.03;3.10;;;;;;;;;;4977675;28;20500;-76
2023/09/19 02:38:25;;;;;;;4.25;3.35;;;;;;;;;;4994621;28;20023;-76
2023/09/19 02:40:51;;;;;;;4.00;3.33;;;;;;;;;;4993142;28;20122;-76
2023/09/19 02:43:17;;;;;;;5.63;3.38;;;;;;;;;;4994900;28;20129;-76
2023/09/19 02:45:42;;;;;;;4.63;3.60;;;;;;;;;;4993504;28;20098;-76
2023/09/19 02:48:07;;;;;;;7.53;3.42;;;;;;;;;;4995000;28;20027;-76
2023/09/19 02:50:33;;;;;;;3.85;3.22;;;;;;;;;;4995001;28;20062;-76
2023/09/19 02:52:59;;;;;;;5.30;2.97;;;;;;;;;;4994949;28;20076;-76
2023/09/19 02:55:24;;;;;;;7.70;3.13;;;;;;;;;;4977391;28;20022;-76
2023/09/19 02:57:56;;;;;;;4.10;3.00;;;;;;;;;;4977465;28;20053;-76
2023/09/19 03:00:23;;;;;;;4.65;2.92;;;;;;;;;;4994711;28;20030;-76
2023/09/19 03:02:54;;;;;;;8.00;2.88;;;;;;;;;;4994733;28;20033;-76
2023/09/19 03:05:20;;;;;;;5.00;2.78;;;;;;;;;;4977210;28;20026;-76
2023/09/19 03:07:50;;;;;;;3.67;2.85;;;;;;;;;;4977327;28;20061;-76
2023/09/19 03:10:16;;;;;;;5.97;2.90;;;;;;;;;;4994747;28;20026;-76
2023/09/19 03:12:42;;;;;;;4.05;2.65;;;;;;;;;;4994551;28;20128;-76
2023/09/19 03:15:08;;;;;;;7.13;3.25;;;;;;;;;;4977219;28;20026;-75
2023/09/19 03:17:35;;;;;;;5.00;2.42;;;;;;;;;;4994978;28;20508;-76
2023/09/19 03:20:00;;;;;;;4.43;2.80;;;;;;;;;;4994524;28;20546;-76
2023/09/19 03:22:26;;;;;;;4.37;2.90;;;;;;;;;;4994339;28;20030;-76
2023/09/19 03:24:52;;;;;;;4.25;2.70;;;;;;;;;;4977062;28;20291;-76
2023/09/19 03:27:18;;;;;;;5.05;2.70;;;;;;;;;;4976947;28;20026;-76
2023/09/19 03:29:43;;;;;;;5.03;2.50;;;;;;;;;;4994372;28;20023;-76
2023/09/19 03:32:11;;;;;;;6.40;2.50;;;;;;;;;;4994294;28;20057;-76
2023/09/19 03:34:40;;;;;;;3.28;2.38;;;;;;;;;;4994348;28;20106;-77
2023/09/19 03:37:06;;;;;;;5.65;2.40;;;;;;;;;;4994192;28;20101;-77
2023/09/19 03:39:32;;;;;;;7.65;2.95;;;;;;;;;;4994245;28;20084;-77
2023/09/19 03:41:59;;;;;;;4.63;2.70;;;;;;;;;;4993939;28;20037;-76
2023/09/19 03:44:25;;;;;;;3.97;2.53;;;;;;;;;;4994049;28;20026;-76
2023/09/19 03:46:50;;;;;;;3.43;2.70;;;;;;;;;;4993987;28;20029;-76
2023/09/19 03:49:15;;;;;;;5.80;2.03;;;;;;;;;;4976459;28;20271;-77
2023/09/19 03:51:41;;;;;;;5.57;2.10;;;;;;;;;;4994027;28;20279;-76
2023/09/19 03:54:07;;;;;;;5.65;2.20;;;;;;;;;;4993891;28;20612;-76
2023/09/19 03:56:32;;;;;;;9.48;2.42;;;;;;;;;;4993947;28;20030;-76
2023/09/19 03:58:58;;;;;;;3.22;2.10;;;;;;;;;;4976458;28;20499;-76
2023/09/19 04:01:23;;;;;;;4.00;1.90;;;;;;;;;;4993748;28;20389;-76
2023/09/19 04:03:50;;;;;;;3.45;1.80;;;;;;;;;;4993764;28;20105;-76
2023/09/19 04:06:16;;;;;;;3.30;1.75;;;;;;;;;;4993903;28;20062;-76
2023/09/19 04:08:42;;;;;;;5.50;2.00;;;;;;;;;;4976215;28;20074;-75
2023/09/19 04:11:08;;;;;;;7.13;1.88;;;;;;;;;;4976218;28;20029;-76
2023/09/19 04:13:33;;;;;;;3.90;1.67;;;;;;;;;;4994002;28;20018;-76
2023/09/19 04:15:59;;;;;;;3.20;1.55;;;;;;;;;;4976167;28;20033;-76
2023/09/19 04:18:25;;;;;;;3.55;1.60;;;;;;;;;;4976164;28;20104;-76
2023/09/19 04:20:50;;;;;;;2.55;1.40;;;;;;;;;;4993642;28;20465;-76
2023/09/19 04:23:16;;;;;;;2.47;1.60;;;;;;;;;;4976115;28;20026;-76
2023/09/19 04:25:42;;;;;;;4.20;1.50;;;;;;;;;;4976180;28;20026;-76
2023/09/19 04:28:07;;;;;;;1.10;1.00;;;;;;;;;;4993552;28;20064;-76
2023/09/19 04:30:32;;;;;;;3.65;1.30;;;;;;;;;;4976234;28;20109;-76
2023/09/19 04:32:57;;;;;;;2.30;1.10;;;;;;;;;;4993807;28;20034;-76
2023/09/19 04:35:23;;;;;;;3.20;1.00;;;;;;;;;;4976097;28;20018;-76
2023/09/19 04:37:50;;;;;;;2.55;1.35;;;;;;;;;;4976053;28;20263;-75
2023/09/19 04:40:17;;;;;;;1.38;1.10;;;;;;;;;;4975901;28;20087;-75
2023/09/19 04:42:43;;;;;;;8.15;1.17;;;;;;;;;;4993367;28;20053;-76
2023/09/19 04:45:10;;;;;;;1.50;1.10;;;;;;;;;;4993535;28;20081;-76
2023/09/19 04:47:38;;;;;;;2.05;1.10;;;;;;;;;;4975945;28;20102;-76
2023/09/19 04:50:04;;;;;;;3.05;1.30;;;;;;;;;;4993419;28;20494;-76
2023/09/19 04:52:31;;;;;;;2.10;1.10;;;;;;;;;;4995775;28;20097;-76
2023/09/19 04:54:57;;;;;;;1.80;1.20;;;;;;;;;;4997107;28;20038;-76
2023/09/19 04:57:22;;;;;;;5.38;1.45;;;;;;;;;;4997019;28;20029;-75
2023/09/19 04:59:48;;;;;;;4.78;1.30;;;;;;;;;;4996666;28;20111;-74
2023/09/19 05:02:13;;;;;;;2.17;1.20;;;;;;;;;;4997342;28;20036;-76
2023/09/19 05:04:38;;;;;;;5.50;1.20;;;;;;;;;;4996871;28;20340;-76
2023/09/19 05:07:04;;;;;;;2.22;1.20;;;;;;;;;;4979459;28;20370;-77
2023/09/19 05:09:29;;;;;;;2.55;1.23;;;;;;;;;;4996985;28;20053;-76
2023/09/19 05:11:56;;;;;;;2.22;1.10;;;;;;;;;;4997272;28;20473;-76
2023/09/19 05:14:22;;;;;;;1.60;1.05;;;;;;;;;;4979773;28;20033;-75
2023/09/19 05:16:47;;;;;;;3.65;1.38;;;;;;;;;;4998032;28;20073;-76
2023/09/19 05:19:13;;;;;;;3.92;1.20;;;;;;;;;;4979591;28;20034;-76
2023/09/19 05:21:38;;;;;;;5.13;1.50;;;;;;;;;;4979027;28;20030;-75
2023/09/19 05:24:06;;;;;;;2.60;1.02;;;;;;;;;;4996215;28;20370;-73
2023/09/19 05:26:32;;;;;;;2.17;1.20;;;;;;;;;;4997052;28;20029;-75
2023/09/19 05:28:57;;;;;;;1.95;1.30;;;;;;;;;;4979448;28;20392;-77
2023/09/19 05:31:24;;;;;;;5.03;1.33;;;;;;;;;;4996241;28;20385;-75
2023/09/19 05:33:49;;;;;;;5.60;1.40;;;;;;;;;;4996552;28;20256;-76
2023/09/19 05:36:15;;;;;;;3.90;1.42;;;;;;;;;;4996346;28;20029;-76
2023/09/19 05:38:42;;;;;;;4.72;1.40;;;;;;;;;;4980117;28;20022;-77
2023/09/19 05:41:09;;;;;;;3.53;1.70;;;;;;;;;;4997985;28;20442;-77
2023/09/19 05:43:37;;;;;;;11.48;1.83;;;;;;;;;;4998328;28;20029;-80
2023/09/19 05:46:02;;;;;;;3.97;1.55;;;;;;;;;;4998406;28;20409;-78
2023/09/19 05:48:28;;;;;;;6.65;2.10;;;;;;;;;;4979945;28;20022;-77
2023/09/19 05:50:53;;;;;;;5.50;1.77;;;;;;;;;;4996156;28;20022;-77
2023/09/19 05:53:18;;;;;;;3.58;1.80;;;;;;;;;;4995736;28;20256;-77
2023/09/19 05:55:43;;;;;;;1.40;1.17;;;;;;;;;;4978547;28;20080;-77
2023/09/19 05:58:10;;;;;;;2.53;1.55;;;;;;;;;;4996549;28;20033;-77
2023/09/19 06:00:36;;;;;;;3.10;1.35;;;;;;;;;;4995748;28;20019;-77
2023/09/19 06:03:02;;;;;;;3.90;1.25;;;;;;;;;;4994431;28;20320;-77
2023/09/19 06:05:29;;;;;;;1.63;1.20;;;;;;;;;;4995241;28;20050;-77
2023/09/19 06:07:54;;;;;;;3.80;1.23;;;;;;;;;;4995801;28;20022;-77
2023/09/19 06:10:23;;;;;;;2.13;1.10;;;;;;;;;;4995976;28;20027;-77
2023/09/19 06:12:48;;;;;;;4.45;1.40;;;;;;;;;;4996080;28;20073;-76
2023/09/19 06:15:15;;;;;;;5.43;1.25;;;;;;;;;;4978168;28;20030;-77
2023/09/19 06:17:42;;;;;;;2.40;1.13;;;;;;;;;;4979134;28;20026;-76
2023/09/19 06:20:14;;;;;;;3.10;1.25;;;;;;;;;;4978613;28;20058;-77
2023/09/19 06:22:41;;;;;;;10.32;1.13;;;;;;;;;;4996789;28;20026;-77
2023/09/19 06:25:07;;;;;;;3.75;1.10;;;;;;;;;;4995699;28;20022;-77
2023/09/19 06:27:32;;;;;;;2.50;1.35;;;;;;;;;;4995886;28;20517;-76
2023/09/19 06:29:57;;;;;;;3.00;1.17;;;;;;;;;;4995342;28;20029;-77
2023/09/19 06:32:29;;;;;;;2.40;1.30;;;;;;;;;;4995300;28;20022;-76
2023/09/19 06:34:54;;;;;;;3.45;1.23;;;;;;;;;;4978902;28;20068;-77
2023/09/19 06:37:20;;;;;;;3.28;1.20;;;;;;;;;;4995501;28;20050;-77
2023/09/19 06:39:47;;;;;;;2.38;1.10;;;;;;;;;;4980062;28;20108;-77
2023/09/19 06:42:13;;;;;;;1.67;1.08;;;;;;;;;;4977765;28;20049;-77
2023/09/19 06:44:38;;;;;;;1.42;0.90;;;;;;;;;;4978367;28;20041;-77
2023/09/19 06:47:04;;;;;;;1.92;1.00;;;;;;;;;;4996279;28;20058;-77
2023/09/19 06:49:30;;;;;;;4.25;1.00;;;;;;;;;;4995106;28;20045;-77
2023/09/19 06:51:57;;;;;;;2.30;1.05;;;;;;;;;;4978117;28;20018;-77
2023/09/19 06:54:22;;;;;;;0.85;0.85;;;;;;;;;;4994970;28;20515;-77
2023/09/19 06:56:47;;;;;;;2.97;1.10;;;;;;;;;;4977442;28;20030;-77
2023/09/19 06:59:14;;;;;;;2.70;0.97;;;;;;;;;;4995244;28;20018;-77
2023/09/19 07:01:39;;;;;;;4.40;1.20;;;;;;;;;;4995018;28;20276;-77
2023/09/19 07:04:05;;;;;;;5.20;1.20;;;;;;;;;;4994895;28;20397;-77
2023/09/19 07:06:30;;;;;;;3.88;1.13;;;;;;;;;;4995008;28;20019;-77
2023/09/19 07:08:55;;;;;;;1.95;1.00;;;;;;;;;;4994757;28;20018;-77
2023/09/19 07:11:22;;;;;;;1.63;1.00;;;;;;;;;;4994599;28;20018;-77
2023/09/19 07:13:47;;;;;;;2.95;1.08;;;;;;;;;;4994743;28;20647;-77
2023/09/19 07:16:26;;;;;;;3.58;1.00;;;;;;;;;;4994287;28;20029;-78
2023/09/19 07:18:52;;;;;;;2.83;1.30;;;;;;;;;;4976934;28;20021;-77
2023/09/19 07:21:17;;;;;;;3.83;1.20;;;;;;;;;;4976931;28;20030;-77
2023/09/19 07:23:42;;;;;;;4.90;1.30;;;;;;;;;;4994462;28;20030;-77
2023/09/19 07:26:08;;;;;;;3.65;0.90;;;;;;;;;;4994438;28;20482;-76
2023/09/19 07:28:35;;;;;;;3.22;1.60;;;;;;;;;;4994830;28;20022;-75
2023/09/19 07:31:03;;;;;;;1.55;1.17;;;;;;;;;;4994130;28;20101;-77
2023/09/19 07:33:28;;;;;;;1.75;1.10;;;;;;;;;;4994298;28;20084;-77
2023/09/19 07:35:53;;;;;;;1.70;1.20;;;;;;;;;;4994399;28;20101;-77
2023/09/19 07:38:19;;;;;;;1.07;0.80;;;;;;;;;;4994094;28;20019;-76
2023/09/19 07:40:44;;;;;;;1.90;1.20;;;;;;;;;;4976471;28;20266;-76
2023/09/19 07:43:09;;;;;;;2.95;1.00;;;;;;;;;;4994133;28;20426;-77
2023/09/19 07:45:36;;;;;;;1.80;1.10;;;;;;;;;;4996408;28;20105;-77
2023/09/19 07:48:06;;;;;;;2.38;1.02;;;;;;;;;;4994423;28;20260;-77
2023/09/19 07:50:33;;;;;;;2.47;1.00;;;;;;;;;;4976873;28;20397;-77
2023/09/19 07:52:59;;;;;;;1.75;1.00;;;;;;;;;;4994386;28;20105;-77
2023/09/19 07:55:25;;;;;;;1.30;0.90;;;;;;;;;;4993897;28;20053;-77
2023/09/19 07:57:51;;;;;;;2.85;0.85;;;;;;;;;;4978209;28;20392;-77
2023/09/19 08:00:16;;;;;;;1.98;0.90;;;;;;;;;;4993706;28;20069;-77
2023/09/19 08:02:42;;;;;;;1.37;0.80;;;;;;;;;;4976274;28;20026;-77
2023/09/19 08:05:09;;;;;;;3.15;1.10;;;;;;;;;;4993749;28;20271;-77
2023/09/19 08:07:38;;;;;;;2.67;1.63;;;;;;;;;;4993908;28;20077;-77
2023/09/19 08:10:07;;;;;;;1.50;0.85;;;;;;;;;;4993712;28;20541;-77
2023/09/19 08:12:33;;;;;;;1.90;0.88;;;;;;;;;;4993820;28;20034;-77
2023/09/19 08:14:59;;;;;;;1.60;0.80;;;;;;;;;;4993589;28;20117;-77
2023/09/19 08:17:24;;;;;;;1.42;0.82;;;;;;;;;;4993957;28;20026;-77
2023/09/19 08:19:52;;;;;;;3.97;0.80;;;;;;;;;;4977527;28;20065;-77
2023/09/19 08:22:18;;;;;;;2.03;0.73;;;;;;;;;;4994943;28;20291;-80
2023/09/19 08:24:43;;;;;;;1.70;0.70;;;;;;;;;;4976980;28;20033;-76
2023/09/19 08:27:10;;;;;;;2.23;0.97;;;;;;;;;;4995418;28;20077;-79
2023/09/19 08:29:35;;;;;;;3.53;0.90;;;;;;;;;;4980779;28;20272;-78
2023/09/19 08:32:00;;;;;;;3.90;1.10;;;;;;;;;;4998478;28;20041;-78
2023/09/19 08:34:26;;;;;;;2.47;0.70;;;;;;;;;;4997846;28;20025;-77
2023/09/19 08:36:56;;;;;;;2.00;0.77;;;;;;;;;;4997525;28;20105;-77
2023/09/19 08:39:22;;;;;;;3.60;0.90;;;;;;;;;;4997489;28;20026;-77
2023/09/19 08:41:47;;;;;;;2.28;1.00;;;;;;;;;;4997510;28;20022;-74
2023/09/19 08:44:13;;;;;;;2.88;0.90;;;;;;;;;;4997514;28;20037;-76
2023/09/19 08:46:43;;;;;;;1.55;0.90;;;;;;;;;;4996928;28;20117;-76
2023/09/19 08:49:22;;;;;;;2.55;1.20;;;;;;;;;;4997529;28;20492;-76
2023/09/19 08:51:59;;;;;;;0.82;0.68;;;;;;;;;;4997812;28;20033;-76
2023/09/19 08:54:29;;;;;;;3.75;1.10;;;;;;;;;;4997082;28;20026;-76
2023/09/19 08:56:55;;;;;;;2.92;0.80;;;;;;;;;;4997087;28;20023;-76
2023/09/19 08:59:26;;;;;;;4.13;0.95;;;;;;;;;;4997183;28;20555;-76
2023/09/19 09:01:53;;;;;;;1.90;0.80;;;;;;;;;;4997134;28;20030;-76
2023/09/19 09:04:20;;;;;;;1.67;1.10;;;;;;;;;;4979287;28;20022;-77
2023/09/19 09:06:49;;;;;;;1.92;0.90;;;;;;;;;;4997119;28;20026;-76
2023/09/19 09:09:15;;;;;;;1.80;0.80;;;;;;;;;;4979283;28;20022;-76
2023/09/19 09:11:40;;;;;;;1.85;0.80;;;;;;;;;;4997113;28;20363;-77
2023/09/19 09:14:09;;;;;;;1.45;0.80;;;;;;;;;;4996993;28;20030;-76
2023/09/19 09:16:34;;;;;;;3.67;0.80;;;;;;;;;;4997658;28;20038;-76
2023/09/19 09:19:00;;;;;;;2.63;0.88;;;;;;;;;;4997192;28;20030;-76
2023/09/19 09:21:26;;;;;;;1.20;0.88;;;;;;;;;;4996799;28;20022;-77
2023/09/19 09:23:52;;;;;;;1.58;0.70;;;;;;;;;;4996927;28;20034;-76
2023/09/19 09:26:40;;;;;;;1.40;0.70;;;;;;;;;;4996548;28;20049;-76
2023/09/19 09:29:05;;;;;;;3.42;0.95;;;;;;;;;;4979031;28;20038;-76
2023/09/19 09:31:31;;;;;;;2.85;0.77;;;;;;;;;;4996515;28;20023;-76
2023/09/19 09:33:58;;;;;;;2.72;0.82;;;;;;;;;;4997278;28;20022;-76
2023/09/19 09:36:41;;;;;;;2.88;0.80;;;;;;;;;;4978967;28;20560;-76
2023/09/19 09:39:18;;;;;;;1.30;0.70;;;;;;;;;;4978658;28;20138;-76
2023/09/19 09:41:43;;;;;;;2.45;0.98;;;;;;;;;;4979480;28;20470;-76
2023/09/19 09:44:15;;;;;;;2.28;1.13;;;;;;;;;;4996198;28;20105;-76
2023/09/19 09:49:33;;;;;;;1.13;0.80;;;;;;;;;;4996186;28;20018;-76
2023/09/19 09:52:16;;;;;;;1.85;0.90;;;;;;;;;;4996182;28;20022;-76
2023/09/19 09:55:05;;;;;;;1.23;0.68;;;;;;;;;;4979001;28;20072;-76
2023/09/19 09:57:30;;;;;;;1.90;0.90;;;;;;;;;;4997303;28;20018;-76
2023/09/19 09:59:58;;;;;;;1.42;0.80;;;;;;;;;;4995342;28;20026;-76
2023/09/19 10:02:36;;;;;;;1.88;0.80;;;;;;;;;;4996086;28;20030;-75
2023/09/19 10:05:22;;;;;;;2.65;0.90;;;;;;;;;;4994862;28;20026;-76
2023/09/19 10:08:00;;;;;;;4.20;1.05;;;;;;;;;;4978232;28;20026;-75
2023/09/19 10:13:12;;;;;;;1.00;0.90;;;;;;;;;;4995977;28;20023;-75
2023/09/19 10:15:38;;;;;;;4.75;0.93;;;;;;;;;;4995662;28;20022;-76
2023/09/19 10:18:05;;;;;;;2.83;0.98;;;;;;;;;;4978085;28;20038;-76
2023/09/19 10:22:57;;;;;;;0.77;0.70;;;;;;;;;;4995861;28;20363;-74
2023/09/19 10:25:30;;;;;;;1.63;0.75;;;;;;;;;;4978596;28;20045;-75
2023/09/19 10:27:58;;;;;;;0.98;0.68;;;;;;;;;;4977858;28;20030;-75
2023/09/19 10:30:25;;;;;;;2.60;0.80;;;;;;;;;;4995177;28;20030;-75
2023/09/19 10:33:03;;;;;;;2.83;0.90;;;;;;;;;;4995551;28;20030;-75
2023/09/19 10:35:29;;;;;;;3.35;1.13;;;;;;;;;;4995569;28;20031;-75
2023/09/19 10:38:00;;;;;;;2.72;0.70;;;;;;;;;;4994772;28;20109;-75
2023/09/19 10:40:30;;;;;;;1.52;0.80;;;;;;;;;;4977331;28;20030;-75
2023/09/19 10:43:01;;;;;;;1.17;0.80;;;;;;;;;;4993975;28;20029;-75
2023/09/19 10:45:31;;;;;;;0.98;0.80;;;;;;;;;;4995120;28;20030;-75
2023/09/19 10:47:57;;;;;;;1.38;0.70;;;;;;;;;;4995054;28;20058;-75
2023/09/19 10:50:23;;;;;;;1.30;0.80;;;;;;;;;;4994385;28;20088;-76
2023/09/19 10:52:52;;;;;;;2.20;0.90;;;;;;;;;;4977257;28;20028;-75
2023/09/19 10:55:19;;;;;;;1.42;0.80;;;;;;;;;;4977896;28;20432;-75
2023/09/19 10:57:46;;;;;;;3.03;1.10;;;;;;;;;;4977192;28;20069;-75
2023/09/19 11:00:26;;;;;;;5.50;0.73;;;;;;;;;;4994558;28;20034;-75
2023/09/19 11:03:09;;;;;;;1.02;0.70;;;;;;;;;;4994508;28;20019;-75
2023/09/19 11:05:35;;;;;;;2.43;0.93;;;;;;;;;;4994913;28;20026;-76
2023/09/19 11:08:04;;;;;;;2.45;0.95;;;;;;;;;;4977784;28;20030;-76
2023/09/19 11:10:48;;;;;;;3.70;0.80;;;;;;;;;;4994545;28;20465;-76
2023/09/19 11:13:41;;;;;;;3.40;1.17;;;;;;;;;;4994641;28;20027;-75
2023/09/19 11:16:06;;;;;;;1.80;1.00;;;;;;;;;;4975164;28;20038;-75
2023/09/19 11:18:41;;;;;;;1.60;0.90;;;;;;;;;;4994115;28;20626;-77
2023/09/19 11:21:31;;;;;;;2.25;0.88;;;;;;;;;;4994860;28;20040;-76
2023/09/19 11:24:09;;;;;;;4.03;1.73;;;;;;;;;;4976630;28;20030;-76
2023/09/19 11:26:48;;;;;;;4.85;1.00;;;;;;;;;;4994058;28;20404;-76
2023/09/19 11:29:25;;;;;;;1.10;1.00;;;;;;;;;;4976547;28;20070;-76
2023/09/19 11:31:51;;;;;;;1.42;0.90;;;;;;;;;;4976504;28;20426;-76
2023/09/19 11:34:35;;;;;;;2.05;0.93;;;;;;;;;;4994708;28;20037;-76
2023/09/19 11:37:03;;;;;;;;;;;;;;;;;;4994703;28;20018;-76
2023/09/19 11:39:29;;;;;;;1.45;0.85;;;;;;;;;;4994679;28;19916;-78
2023/09/19 11:41:56;;;;;;;3.17;1.58;;;;;;;;;;4993854;28;20027;-75
2023/09/19 11:44:30;;;;;;;6.00;1.40;;;;;;;;;;4993801;28;20109;-76
2023/09/19 11:46:59;;;;;;;6.47;1.10;;;;;;;;;;4993710;28;20153;-76
2023/09/19 11:49:30;;;;;;;3.00;1.10;;;;;;;;;;4976280;28;20486;-75
2023/09/19 11:51:55;;;;;;;3.08;1.10;;;;;;;;;;4993823;28;20509;-76
2023/09/19 11:54:31;;;;;;;1.75;1.17;;;;;;;;;;4976437;28;20054;-77
2023/09/19 11:56:57;;;;;;;2.70;1.17;;;;;;;;;;4976560;28;20397;-77
2023/09/19 11:59:24;;;;;;;2.42;1.30;;;;;;;;;;4993440;28;20034;-77
2023/09/19 12:01:58;;;;;;;3.55;1.40;;;;;;;;;;4992679;28;20026;-77
2023/09/19 12:04:33;;;;;;;2.50;1.20;;;;;;;;;;4976416;28;20121;-77
2023/09/19 12:06:59;;;;;;;4.80;1.20;;;;;;;;;;4977037;28;20400;-79
2023/09/19 12:09:25;;;;;;;1.63;1.00;;;;;;;;;;4979773;28;20050;-77
2023/09/19 12:11:51;;;;;;;3.92;1.40;;;;;;;;;;4994083;28;20026;-75
2023/09/19 12:14:25;;;;;;;1.55;1.00;;;;;;;;;;4993351;28;20125;-75
2023/09/19 12:16:55;;;;;;;2.30;1.05;;;;;;;;;;4973702;28;20500;-77
2023/09/19 12:19:22;;;;;;;2.05;1.30;;;;;;;;;;4992716;28;20572;-76
2023/09/19 12:21:57;;;;;;;3.70;1.33;;;;;;;;;;4975219;28;20026;-77
2023/09/19 12:24:26;;;;;;;2.35;1.13;;;;;;;;;;4975402;28;20504;-77
2023/09/19 12:26:52;;;;;;;4.15;1.13;;;;;;;;;;4993514;28;20390;-76
2023/09/19 12:29:19;;;;;;;1.00;0.85;;;;;;;;;;4993907;28;20105;-76
2023/09/19 12:31:57;;;;;;;1.95;1.00;;;;;;;;;;4994498;28;20026;-77
2023/09/19 12:34:27;;;;;;;1.67;1.00;;;;;;;;;;4993795;28;20022;-75
2023/09/19 12:37:20;;;;;;;2.42;1.00;;;;;;;;;;4993751;28;20030;-76
2023/09/19 12:39:48;;;;;;;1.70;0.93;;;;;;;;;;4995466;28;20022;-78
2023/09/19 12:42:15;;;;;;;1.35;0.80;;;;;;;;;;4996515;28;20057;-79
2023/09/19 12:44:43;;;;;;;2.75;1.05;;;;;;;;;;4978558;28;20049;-78
2023/09/19 12:47:29;;;;;;;2.30;0.95;;;;;;;;;;4996672;28;20048;-79
2023/09/19 12:50:07;;;;;;;3.22;0.85;;;;;;;;;;4977799;28;20105;-78
2023/09/19 12:52:49;;;;;;;3.03;1.23;;;;;;;;;;4997064;28;20133;-81
2023/09/19 12:55:26;;;;;;;5.55;1.10;;;;;;;;;;4996485;28;20120;-81
2023/09/19 12:58:15;;;;;;;2.58;1.00;;;;;;;;;;4995970;28;20023;-78
2023/09/19 13:00:47;;;;;;;2.35;0.98;;;;;;;;;;4996004;28;20018;-79
2023/09/19 13:03:38;;;;;;;2.20;0.90;;;;;;;;;;4995670;28;20031;-80
2023/09/19 13:06:04;;;;;;;2.15;0.90;;;;;;;;;;4977759;28;20030;-77
2023/09/19 13:08:32;;;;;;;1.38;0.80;;;;;;;;;;4997276;28;20059;-78
2023/09/19 13:11:16;;;;;;;2.08;1.30;;;;;;;;;;4996742;28;20078;-79
2023/09/19 13:14:27;;;;;;;2.53;1.08;;;;;;;;;;4999396;28;20038;-79
2023/09/19 13:17:16;;;;;;;3.75;1.00;;;;;;;;;;5000752;28;20030;-79
2023/09/19 13:19:48;;;;;;;4.22;0.90;;;;;;;;;;4982368;28;20444;-80
2023/09/19 13:22:35;;;;;;;1.80;1.10;;;;;;;;;;4982144;28;20034;-79
2023/09/19 13:25:03;;;;;;;2.05;0.90;;;;;;;;;;4980945;28;20026;-75
2023/09/19 13:27:29;;;;;;;2.25;0.95;;;;;;;;;;4998358;28;20362;-75
2023/09/19 13:29:54;;;;;;;2.83;1.00;;;;;;;;;;4998189;28;20029;-76
2023/09/19 13:32:19;;;;;;;2.07;1.03;;;;;;;;;;4998325;28;20026;-76
2023/09/19 13:34:44;;;;;;;2.00;1.10;;;;;;;;;;4997813;28;20260;-76
2023/09/19 13:37:10;;;;;;;2.63;1.00;;;;;;;;;;4981071;28;20256;-76
2023/09/19 13:39:36;;;;;;;3.58;1.10;;;;;;;;;;4998191;28;20456;-76
2023/09/19 13:42:02;;;;;;;2.22;0.93;;;;;;;;;;4997116;28;20050;-78
2023/09/19 13:44:28;;;;;;;2.47;0.80;;;;;;;;;;4997675;28;20030;-76
2023/09/19 13:46:55;;;;;;;2.75;1.00;;;;;;;;;;4998747;28;20026;-76
2023/09/19 13:49:21;;;;;;;2.17;1.10;;;;;;;;;;4998103;28;20057;-76
2023/09/19 13:51:46;;;;;;;2.95;1.20;;;;;;;;;;4998909;28;20038;-76
2023/09/19 13:54:12;;;;;;;3.40;1.20;;;;;;;;;;4980191;28;20051;-76
2023/09/19 13:56:38;;;;;;;3.45;1.15;;;;;;;;;;4980750;28;20482;-75
2023/09/19 13:59:03;;;;;;;3.25;1.23;;;;;;;;;;4998222;28;20026;-76
2023/09/19 14:01:31;;;;;;;1.73;1.10;;;;;;;;;;4980046;28;20033;-78
2023/09/19 14:03:57;;;;;;;1.67;1.05;;;;;;;;;;4997537;28;20378;-76
2023/09/19 14:06:22;;;;;;;3.38;1.20;;;;;;;;;;4997353;28;20026;-76
2023/09/19 14:08:49;;;;;;;1.80;1.10;;;;;;;;;;4979387;28;20033;-77
2023/09/19 14:11:15;;;;;;;6.63;1.10;;;;;;;;;;4997571;28;20359;-76
2023/09/19 14:13:48;;;;;;;3.80;1.20;;;;;;;;;;4979785;28;20038;-76
2023/09/19 14:16:14;;;;;;;2.72;1.20;;;;;;;;;;4997707;28;20064;-77
2023/09/19 14:18:39;;;;;;;2.67;1.00;;;;;;;;;;4980762;28;20026;-76
2023/09/19 14:21:05;;;;;;;2.08;1.10;;;;;;;;;;4997472;28;20037;-76
2023/09/19 14:23:41;;;;;;;2.35;1.20;;;;;;;;;;4997749;28;20501;-76
2023/09/19 14:26:06;;;;;;;4.03;1.33;;;;;;;;;;4979772;28;20431;-76
2023/09/19 14:28:33;;;;;;;3.80;1.55;;;;;;;;;;4997790;28;20072;-76
2023/09/19 14:31:04;;;;;;;2.33;1.08;;;;;;;;;;4979879;28;20085;-76
2023/09/19 14:33:31;;;;;;;1.70;0.95;;;;;;;;;;4979789;28;20508;-76
2023/09/19 14:35:56;;;;;;;2.08;1.20;;;;;;;;;;4997192;28;20022;-75
2023/09/19 14:38:24;;;;;;;2.90;1.27;;;;;;;;;;4997389;28;20069;-76
2023/09/19 14:41:05;;;;;;;1.75;1.00;;;;;;;;;;4979468;28;20770;-75
2023/09/19 14:43:32;;;;;;;1.77;1.15;;;;;;;;;;4997254;28;20030;-75
2023/09/19 14:46:02;;;;;;;4.38;1.38;;;;;;;;;;4979896;28;20121;-75
2023/09/19 14:48:27;;;;;;;2.85;1.00;;;;;;;;;;4997261;28;20033;-78
2023/09/19 14:50:53;;;;;;;4.37;1.30;;;;;;;;;;4998086;28;20038;-77
2023/09/19 14:53:18;;;;;;;2.42;1.25;;;;;;;;;;4977275;28;20639;-76
2023/09/19 14:55:45;;;;;;;4.25;1.40;;;;;;;;;;4996155;28;20026;-75
2023/09/19 14:58:11;;;;;;;2.60;1.40;;;;;;;;;;4978711;28;20022;-74
2023/09/19 15:00:36;;;;;;;3.28;1.30;;;;;;;;;;4996444;28;20446;-74